This is the latest recevied weather packets stored in our database for station/object DH8TOM-3. If no packets are shown the sender has not sent any weather packets the latest 10 day(s).
| Time | Temp. | Humidity | Pressure | Rain* | Wind** | Luminosity | Snow |
|---|---|---|---|---|---|---|---|
| 1777817297 | 25.56° C | 39% | 1010.3 hPa | 0 mm | - | - | - |
| 1777816996 | 25.56° C | 42% | 1010.5 hPa | 0 mm | - | - | - |
| 1777816694 | 25.56° C | 42% | 1010.5 hPa | 0 mm | - | - | - |
| 1777816394 | 25.56° C | 41% | 1010.6 hPa | 0 mm | - | - | - |
| 1777816093 | 25.56° C | 41% | 1010.6 hPa | 0 mm | - | - | - |
| 1777815792 | 25° C | 41% | 1010.7 hPa | 0 mm | - | - | - |
| 1777815491 | 25° C | 41% | 1010.7 hPa | 0 mm | - | - | - |
| 1777815190 | 25° C | 42% | 1010.9 hPa | 0 mm | - | - | - |
| 1777814889 | 25° C | 42% | 1010.9 hPa | 0 mm | - | - | - |
| 1777814588 | 25° C | 40% | 1011.1 hPa | 0 mm | - | - | - |
| 1777814298 | 25° C | 40% | 1011.2 hPa | 0 mm | - | - | - |
| 1777812495 | 25° C | 40% | 1011.3 hPa | 0 mm | - | - | - |
| 1777756516 | 18.89° C | 51% | 1014.7 hPa | 0 mm | - | - | - |
| 1777756194 | 18.89° C | 51% | 1014.7 hPa | 0 mm | - | - | - |
| 1777755882 | 18.89° C | 50% | 1014.7 hPa | 0 mm | - | - | - |
| 1777755592 | 18.89° C | 50% | 1014.7 hPa | 0 mm | - | - | - |
| 1777755281 | 18.89° C | 49% | 1014.7 hPa | 0 mm | - | - | - |
| 1777754979 | 18.89° C | 49% | 1014.7 hPa | 0 mm | - | - | - |
| 1777754678 | 19.44° C | 49% | 1014.8 hPa | 0 mm | - | - | - |
| 1777754377 | 19.44° C | 49% | 1014.8 hPa | 0 mm | - | - | - |
| 1777754076 | 19.44° C | 49% | 1014.8 hPa | 0 mm | - | - | - |
| 1777753775 | 19.44° C | 49% | 1014.8 hPa | 0 mm | - | - | - |
| 1777753473 | 19.44° C | 48% | 1014.8 hPa | 0 mm | - | - | - |
| 1777753173 | 19.44° C | 48% | 1014.8 hPa | 0 mm | - | - | - |
| 1777752874 | 19.44° C | 48% | 1014.9 hPa | 0 mm | - | - | - |
* Rain latest hour (hover to see other rain measurements)
** Current wind speed in m/s (hover to see current wind gust speed)